createdAt,value
2023-01-23T00:00:55.206Z,0.00
2023-01-23T00:03:54.088Z,-0.10
2023-01-23T00:06:50.834Z,-0.10
2023-01-23T00:09:47.617Z,-0.10
2023-01-23T00:12:45.746Z,-0.10
2023-01-23T00:15:42.577Z,-0.20
2023-01-23T00:18:39.573Z,-0.20
2023-01-23T00:21:36.298Z,-0.10
2023-01-23T00:24:33.130Z,-0.10
2023-01-23T00:27:29.915Z,-0.10
2023-01-23T00:30:26.672Z,-0.20
2023-01-23T00:33:23.425Z,-0.20
2023-01-23T00:36:20.159Z,-0.20
2023-01-23T00:39:19.175Z,-0.20
2023-01-23T00:42:15.922Z,-0.20
2023-01-23T00:45:12.712Z,-0.20
2023-01-23T00:48:09.492Z,-0.20
2023-01-23T00:51:06.456Z,-0.20
2023-01-23T00:54:03.447Z,-0.20
2023-01-23T00:57:00.177Z,-0.20
2023-01-23T00:59:56.931Z,-0.30
2023-01-23T01:02:53.748Z,-0.20
2023-01-23T01:05:50.752Z,-0.10
2023-01-23T01:08:47.716Z,-0.20
2023-01-23T01:11:44.479Z,-0.30
2023-01-23T01:14:41.277Z,-0.30
2023-01-23T01:17:38.014Z,-0.30
2023-01-23T01:20:34.764Z,-0.30
2023-01-23T01:23:31.515Z,-0.20
2023-01-23T01:26:28.268Z,-0.30
2023-01-23T01:29:25.020Z,-0.30
2023-01-23T01:32:21.799Z,-0.30
2023-01-23T01:35:18.619Z,-0.20
2023-01-23T01:38:15.510Z,-0.30
2023-01-23T01:41:13.185Z,-0.30
2023-01-23T01:44:22.227Z,-0.30
2023-01-23T01:47:18.974Z,-0.30
2023-01-23T01:50:15.826Z,-0.30
2023-01-23T01:53:13.341Z,-0.30
2023-01-23T01:56:14.229Z,-0.30
2023-01-23T01:59:11.811Z,-0.30
2023-01-23T02:02:24.256Z,-0.40
2023-01-23T02:05:33.286Z,-0.30
2023-01-23T02:08:45.713Z,-0.30
2023-01-23T02:11:43.472Z,-0.30
2023-01-23T02:14:40.427Z,-0.30
2023-01-23T02:17:38.224Z,-0.30
2023-01-23T02:20:35.071Z,-0.20
2023-01-23T02:24:00.386Z,-0.30
2023-01-23T02:26:57.303Z,-0.30
2023-01-23T02:29:56.197Z,-0.30
2023-01-23T02:32:52.971Z,-0.30
2023-01-23T02:35:50.623Z,-0.30
2023-01-23T02:38:55.772Z,-0.30
2023-01-23T02:41:52.963Z,-0.30
2023-01-23T02:44:50.156Z,-0.30
2023-01-23T02:47:46.918Z,-0.30
2023-01-23T02:50:46.360Z,-0.30
2023-01-23T02:53:43.864Z,-0.30
2023-01-23T02:56:42.231Z,-0.30
2023-01-23T02:59:57.587Z,-0.30
2023-01-23T03:02:55.488Z,-0.30
2023-01-23T03:05:52.248Z,-0.40
2023-01-23T03:08:49.370Z,-0.30
2023-01-23T03:11:46.898Z,-0.30
2023-01-23T03:14:43.649Z,-0.30
2023-01-23T03:17:40.504Z,-0.40
2023-01-23T03:20:41.022Z,-0.40
2023-01-23T03:23:40.408Z,-0.30
2023-01-23T03:26:41.308Z,-0.30
2023-01-23T03:29:56.710Z,-0.30
2023-01-23T03:32:53.469Z,-0.30
2023-01-23T03:35:50.240Z,-0.30
2023-01-23T03:39:05.446Z,-0.40
2023-01-23T03:42:02.219Z,-0.40
2023-01-23T03:44:58.980Z,-0.40
2023-01-23T03:47:55.739Z,-0.30
2023-01-23T03:50:52.510Z,-0.30
2023-01-23T03:53:49.263Z,-0.40
2023-01-23T03:56:46.035Z,-0.30
2023-01-23T03:59:42.794Z,-0.30
2023-01-23T04:02:39.584Z,-0.30
2023-01-23T04:05:36.337Z,-0.40
2023-01-23T04:08:33.096Z,-0.30
2023-01-23T04:11:29.943Z,-0.30
2023-01-23T04:14:30.436Z,-0.30
2023-01-23T04:17:27.200Z,-0.30
2023-01-23T04:20:23.942Z,-0.40
2023-01-23T04:23:20.971Z,-0.40
2023-01-23T04:26:17.906Z,-0.40
2023-01-23T04:29:14.669Z,-0.30
2023-01-23T04:32:11.414Z,-0.30
2023-01-23T04:35:08.278Z,-0.30
2023-01-23T04:38:05.047Z,-0.30
2023-01-23T04:41:04.103Z,-0.20
2023-01-23T04:44:20.026Z,-0.30
2023-01-23T04:47:16.818Z,-0.30
2023-01-23T04:50:14.056Z,-0.20
2023-01-23T04:53:11.359Z,-0.20
2023-01-23T04:56:08.415Z,-0.30
2023-01-23T04:59:05.339Z,-0.40
2023-01-23T05:02:02.613Z,-0.30
2023-01-23T05:04:59.628Z,-0.30
2023-01-23T05:07:56.444Z,-0.30
2023-01-23T05:10:53.206Z,-0.30
2023-01-23T05:13:49.975Z,-0.20
2023-01-23T05:16:46.714Z,-0.20
2023-01-23T05:19:43.481Z,-0.20
2023-01-23T05:22:52.303Z,-0.20
2023-01-23T05:25:49.328Z,-0.20
2023-01-23T05:28:46.323Z,-0.30
2023-01-23T05:31:43.128Z,-0.20
2023-01-23T05:34:39.993Z,-0.30
2023-01-23T05:37:36.749Z,-0.20
2023-01-23T05:40:33.566Z,-0.30
2023-01-23T05:43:30.321Z,-0.30
2023-01-23T05:46:27.180Z,-0.30
2023-01-23T05:49:24.026Z,-0.20
2023-01-23T05:52:21.882Z,-0.30
2023-01-23T05:55:18.683Z,-0.20
2023-01-23T05:58:16.108Z,-0.20
2023-01-23T06:01:13.011Z,-0.30
2023-01-23T06:04:10.287Z,-0.40
2023-01-23T06:07:12.947Z,-0.30
2023-01-23T06:10:10.194Z,-0.30
2023-01-23T06:13:06.970Z,-0.20
2023-01-23T06:16:03.944Z,-0.20
2023-01-23T06:19:10.006Z,-0.30
2023-01-23T06:22:07.184Z,-0.30
2023-01-23T06:25:04.311Z,-0.20
2023-01-23T06:28:01.292Z,-0.30
2023-01-23T06:31:03.826Z,-0.30
2023-01-23T06:34:01.155Z,-0.20
2023-01-23T06:36:57.896Z,-0.20
2023-01-23T06:39:54.665Z,-0.20
2023-01-23T06:42:54.995Z,-0.30
2023-01-23T06:45:52.254Z,-0.30
2023-01-23T06:48:49.215Z,-0.30
2023-01-23T06:51:45.978Z,-0.30
2023-01-23T06:54:42.750Z,-0.30
2023-01-23T06:57:40.834Z,-0.30
2023-01-23T07:00:37.611Z,-0.20
2023-01-23T07:03:34.355Z,-0.20
2023-01-23T07:06:31.613Z,-0.30
2023-01-23T07:09:28.671Z,-0.30
2023-01-23T07:12:25.427Z,-0.20
2023-01-23T07:15:22.253Z,-0.20
2023-01-23T07:18:19.007Z,-0.20
2023-01-23T07:21:15.752Z,-0.20
2023-01-23T07:24:12.523Z,-0.20
2023-01-23T07:27:09.296Z,-0.20
2023-01-23T07:30:06.579Z,-0.20
2023-01-23T07:33:03.778Z,-0.20
2023-01-23T07:36:00.821Z,-0.10
2023-01-23T07:38:59.002Z,-0.10
2023-01-23T07:41:55.757Z,-0.10
2023-01-23T07:44:52.602Z,-0.10
2023-01-23T07:47:49.386Z,0.00
2023-01-23T07:50:46.171Z,0.10
2023-01-23T07:53:43.447Z,0.10
2023-01-23T07:56:40.473Z,0.10
2023-01-23T07:59:37.322Z,0.10
2023-01-23T08:02:34.092Z,0.00
2023-01-23T08:05:30.896Z,0.10
2023-01-23T08:08:27.911Z,0.10
2023-01-23T08:11:26.550Z,0.20
2023-01-23T08:14:23.453Z,0.10
2023-01-23T08:17:21.094Z,0.10
2023-01-23T08:20:18.580Z,0.10
2023-01-23T08:23:15.567Z,0.10
2023-01-23T08:26:14.760Z,0.10
2023-01-23T08:29:12.327Z,0.10
2023-01-23T08:32:09.351Z,0.20
2023-01-23T08:35:06.493Z,0.30
2023-01-23T08:38:03.717Z,0.30
2023-01-23T08:41:02.905Z,0.20
2023-01-23T08:44:01.690Z,0.30
2023-01-23T08:46:58.506Z,0.30
2023-01-23T08:49:55.770Z,0.30
2023-01-23T08:52:52.574Z,0.40
2023-01-23T08:55:49.369Z,0.40
2023-01-23T08:58:48.929Z,0.30
2023-01-23T09:01:47.927Z,0.20
2023-01-23T09:04:44.699Z,0.20
2023-01-23T09:07:41.453Z,0.20
2023-01-23T09:10:38.335Z,0.30
2023-01-23T09:13:35.640Z,0.40
2023-01-23T09:16:32.427Z,0.30
2023-01-23T09:19:32.444Z,0.30
2023-01-23T09:22:29.407Z,0.40
2023-01-23T09:25:26.189Z,0.40
2023-01-23T09:28:22.989Z,0.40
2023-01-23T09:31:20.003Z,0.50
2023-01-23T09:34:17.366Z,0.50
2023-01-23T09:37:15.124Z,0.60
2023-01-23T09:40:17.553Z,0.70
2023-01-23T09:43:17.788Z,0.70
2023-01-23T09:46:40.816Z,0.70
2023-01-23T09:50:02.777Z,0.70
2023-01-23T09:53:05.762Z,0.80
2023-01-23T09:56:11.265Z,0.80
2023-01-23T09:59:14.692Z,0.70
2023-01-23T10:02:20.293Z,0.70
2023-01-23T10:05:18.502Z,0.70
2023-01-23T10:08:40.397Z,0.60
2023-01-23T10:11:37.066Z,0.70
2023-01-23T10:14:58.533Z,0.70
2023-01-23T10:18:23.313Z,0.70
2023-01-23T10:21:49.535Z,0.70
2023-01-23T10:24:50.649Z,0.70
2023-01-23T10:27:49.794Z,0.80
2023-01-23T10:30:49.731Z,0.90
2023-01-23T10:33:51.262Z,1.00
2023-01-23T10:37:31.445Z,1.00
2023-01-23T10:40:46.854Z,1.00
2023-01-23T10:43:51.346Z,1.10
2023-01-23T10:46:51.270Z,1.10
2023-01-23T10:49:49.711Z,1.10
2023-01-23T10:52:46.573Z,1.10
2023-01-23T10:55:45.689Z,1.20
2023-01-23T10:58:42.733Z,1.20
2023-01-23T11:01:42.348Z,1.20
2023-01-23T11:04:47.005Z,1.20
2023-01-23T11:07:53.423Z,1.30
2023-01-23T11:10:50.768Z,1.20
2023-01-23T11:13:49.687Z,1.40
2023-01-23T11:16:46.563Z,1.40
2023-01-23T11:19:45.286Z,1.30
2023-01-23T11:22:43.433Z,1.40
2023-01-23T11:25:42.622Z,1.40
2023-01-23T11:28:49.885Z,1.50
2023-01-23T11:31:47.631Z,1.40
2023-01-23T11:34:51.271Z,1.40
2023-01-23T11:37:48.123Z,1.40
2023-01-23T11:40:45.004Z,1.40
2023-01-23T11:43:41.843Z,1.40
2023-01-23T11:46:57.456Z,1.40
2023-01-23T11:50:11.723Z,1.50
2023-01-23T11:53:43.618Z,1.50
2023-01-23T11:56:59.173Z,1.40
2023-01-23T12:00:07.844Z,1.40
2023-01-23T12:03:32.217Z,1.40
2023-01-23T12:06:39.243Z,1.50
2023-01-23T12:10:04.520Z,1.60
2023-01-23T12:13:07.661Z,1.60
2023-01-23T12:16:41.034Z,1.60
2023-01-23T12:19:49.775Z,1.60
2023-01-23T12:23:13.534Z,1.60
2023-01-23T12:26:15.451Z,1.50
2023-01-23T12:29:31.000Z,1.60
2023-01-23T12:32:35.749Z,1.70
2023-01-23T12:35:54.124Z,1.70
2023-01-23T12:38:50.772Z,1.70
2023-01-23T12:42:04.503Z,1.60
2023-01-23T12:45:04.291Z,1.60
2023-01-23T12:48:13.268Z,1.50
2023-01-23T12:51:18.929Z,1.50
2023-01-23T12:54:22.531Z,1.40
2023-01-23T12:57:52.356Z,1.50
2023-01-23T13:01:10.891Z,1.40
2023-01-23T13:04:25.110Z,1.50
2023-01-23T13:07:41.980Z,1.50
2023-01-23T13:11:34.690Z,1.60
2023-01-23T13:14:36.807Z,1.60
2023-01-23T13:17:48.616Z,1.60
2023-01-23T13:21:18.301Z,1.70
2023-01-23T13:24:40.979Z,1.80
2023-01-23T13:27:59.943Z,1.80
2023-01-23T13:31:04.466Z,1.90
2023-01-23T13:34:15.031Z,1.90
2023-01-23T13:37:47.561Z,1.90
2023-01-23T13:41:04.629Z,1.90
2023-01-23T13:44:18.019Z,1.90
2023-01-23T14:22:03.767Z,1.50
2023-01-23T14:25:00.551Z,1.50
2023-01-23T14:28:05.380Z,1.40
2023-01-23T14:31:05.163Z,1.50
2023-01-23T14:34:09.864Z,1.50
2023-01-23T14:37:10.670Z,1.40
2023-01-23T14:40:25.674Z,1.40
2023-01-23T14:43:28.303Z,1.40
2023-01-23T14:46:40.173Z,1.40
2023-01-23T14:49:37.247Z,1.40
2023-01-23T14:52:34.117Z,1.40
2023-01-23T14:55:32.920Z,1.40
2023-01-23T14:58:30.497Z,1.40
2023-01-23T15:01:27.897Z,1.40
2023-01-23T15:04:28.304Z,1.40
2023-01-23T15:07:25.089Z,1.40
2023-01-23T15:10:43.619Z,1.30
2023-01-23T15:13:44.127Z,1.30
2023-01-23T15:16:41.912Z,1.30
2023-01-23T15:19:40.164Z,1.20
2023-01-23T15:22:38.214Z,1.20
2023-01-23T15:25:35.013Z,1.20
2023-01-23T15:28:54.784Z,1.20
2023-01-23T15:31:53.552Z,1.20
2023-01-23T15:34:56.126Z,1.20
2023-01-23T15:37:56.002Z,1.20
2023-01-23T15:40:52.832Z,1.20
2023-01-23T15:43:49.605Z,1.20
2023-01-23T15:46:46.788Z,1.10
2023-01-23T15:49:43.787Z,1.10
2023-01-23T15:52:48.486Z,1.10
2023-01-23T15:55:45.507Z,1.10
2023-01-23T15:58:42.385Z,1.10
2023-01-23T16:01:39.176Z,1.00
2023-01-23T16:04:35.958Z,1.00
2023-01-23T16:07:34.915Z,1.10
2023-01-23T16:10:39.139Z,1.00
2023-01-23T16:13:35.893Z,1.00
2023-01-23T16:16:32.735Z,0.90
2023-01-23T16:19:29.541Z,0.90
2023-01-23T16:22:29.105Z,0.90
2023-01-23T16:25:43.105Z,0.80
2023-01-23T16:28:41.272Z,0.80
2023-01-23T16:31:38.330Z,0.80
2023-01-23T16:34:35.371Z,0.90
2023-01-23T16:37:32.589Z,0.80
2023-01-23T16:40:32.756Z,0.80
2023-01-23T16:43:29.846Z,0.80
2023-01-23T16:46:26.627Z,0.80
2023-01-23T16:49:23.720Z,0.80
2023-01-23T16:52:22.183Z,0.70
2023-01-23T16:55:24.105Z,0.80
2023-01-23T16:58:27.168Z,0.80
2023-01-23T17:01:24.316Z,0.80
2023-01-23T17:04:21.918Z,0.70
2023-01-23T17:07:19.061Z,0.70
2023-01-23T17:10:17.732Z,0.70
2023-01-23T17:13:16.057Z,0.70
2023-01-23T17:16:26.489Z,0.70
2023-01-23T17:19:30.976Z,0.70
2023-01-23T17:22:31.969Z,0.70
2023-01-23T17:25:28.855Z,0.70
2023-01-23T17:28:25.804Z,0.70
2023-01-23T17:31:24.629Z,0.80
2023-01-23T17:34:24.203Z,0.80
2023-01-23T17:37:22.702Z,0.70
2023-01-23T17:40:19.963Z,0.70
2023-01-23T17:43:17.977Z,0.80
2023-01-23T17:46:23.848Z,0.80
2023-01-23T17:49:29.349Z,0.80
2023-01-23T17:52:28.730Z,0.80
2023-01-23T17:55:28.800Z,0.70
2023-01-23T17:58:25.949Z,0.70
2023-01-23T18:01:25.251Z,0.70
2023-01-23T18:04:22.562Z,0.70
2023-01-23T18:07:19.345Z,0.70
2023-01-23T18:10:16.427Z,0.70
2023-01-23T18:13:30.164Z,0.70
2023-01-23T18:16:31.947Z,0.70
2023-01-23T18:19:30.308Z,0.70
2023-01-23T18:22:27.221Z,0.70
2023-01-23T18:25:26.239Z,0.70
2023-01-23T18:28:23.068Z,0.70
2023-01-23T18:31:43.662Z,0.70
2023-01-23T18:34:47.663Z,0.70
2023-01-23T18:38:02.535Z,0.70
2023-01-23T18:41:31.945Z,0.70
2023-01-23T18:44:31.490Z,0.70
2023-01-23T18:47:28.494Z,0.70
2023-01-23T18:50:27.027Z,0.70
2023-01-23T18:53:55.556Z,0.80
2023-01-23T18:57:19.987Z,0.70
2023-01-23T19:00:37.433Z,0.70
2023-01-23T19:03:46.641Z,0.70
2023-01-23T19:06:44.712Z,0.70
2023-01-23T19:09:46.344Z,0.70
2023-01-23T19:13:10.560Z,0.70
2023-01-23T19:16:15.128Z,0.60
2023-01-23T19:19:35.078Z,0.70
2023-01-23T19:22:45.552Z,0.70
2023-01-23T19:25:45.421Z,0.70
2023-01-23T19:28:42.535Z,0.70
2023-01-23T19:31:39.852Z,0.60
2023-01-23T19:34:36.639Z,0.60
2023-01-23T19:37:33.455Z,0.60
2023-01-23T19:40:30.231Z,0.60
2023-01-23T19:43:28.132Z,0.70
2023-01-23T19:46:29.025Z,0.70
2023-01-23T19:49:26.008Z,0.60
2023-01-23T19:52:22.937Z,0.60
2023-01-23T19:55:32.588Z,0.60
2023-01-23T19:58:30.948Z,0.60
2023-01-23T20:01:43.500Z,0.60
2023-01-23T20:04:40.536Z,0.60
2023-01-23T20:07:37.754Z,0.60
2023-01-23T20:10:34.524Z,0.60
2023-01-23T20:13:31.282Z,0.60
2023-01-23T20:16:28.468Z,0.60
2023-01-23T20:19:25.322Z,0.60
2023-01-23T20:22:22.076Z,0.50
2023-01-23T20:25:19.212Z,0.60
2023-01-23T20:28:16.136Z,0.60
2023-01-23T20:31:14.322Z,0.50
2023-01-23T20:34:11.133Z,0.60
2023-01-23T20:37:07.895Z,0.60
2023-01-23T20:40:05.070Z,0.60
2023-01-23T20:43:01.856Z,0.60
2023-01-23T20:45:58.667Z,0.50
2023-01-23T20:48:55.758Z,0.50
2023-01-23T20:51:52.535Z,0.50
2023-01-23T20:54:49.318Z,0.50
2023-01-23T20:58:04.397Z,0.50
2023-01-23T21:01:01.263Z,0.40
2023-01-23T21:03:58.119Z,0.50
2023-01-23T21:06:55.000Z,0.40
2023-01-23T21:09:51.795Z,0.50
2023-01-23T21:12:48.556Z,0.50
2023-01-23T21:15:55.500Z,0.40
2023-01-23T21:18:53.423Z,0.40
2023-01-23T21:21:50.177Z,0.50
2023-01-23T21:24:47.010Z,0.50
2023-01-23T21:27:43.755Z,0.40
2023-01-23T21:30:40.713Z,0.50
2023-01-23T21:33:38.070Z,0.40
2023-01-23T21:36:35.019Z,0.50
2023-01-23T21:39:31.772Z,0.40
2023-01-23T21:42:28.563Z,0.40
2023-01-23T21:45:26.033Z,0.30
2023-01-23T21:48:23.299Z,0.40
2023-01-23T21:51:21.890Z,0.30
2023-01-23T21:54:18.665Z,0.40
2023-01-23T21:57:15.666Z,0.30
2023-01-23T22:00:31.396Z,0.40
2023-01-23T22:03:28.187Z,0.30
2023-01-23T22:06:24.934Z,0.30
2023-01-23T22:09:24.611Z,0.30
2023-01-23T22:12:21.422Z,0.30
2023-01-23T22:15:18.218Z,0.30
2023-01-23T22:18:14.985Z,0.30
2023-01-23T22:21:12.124Z,0.30
2023-01-23T22:24:09.008Z,0.30
2023-01-23T22:27:05.913Z,0.30
2023-01-23T22:30:02.682Z,0.20
2023-01-23T22:32:59.612Z,0.30
2023-01-23T22:35:56.378Z,0.40
2023-01-23T22:38:54.575Z,0.30
2023-01-23T22:41:51.353Z,0.40
2023-01-23T22:44:48.113Z,0.30
2023-01-23T22:47:44.843Z,0.30
2023-01-23T22:50:41.597Z,0.40
2023-01-23T22:53:38.355Z,0.20
2023-01-23T22:56:35.128Z,0.20
2023-01-23T22:59:31.894Z,0.20
2023-01-23T23:02:28.641Z,0.30
2023-01-23T23:05:25.410Z,0.30
2023-01-23T23:08:22.220Z,0.30
2023-01-23T23:11:24.850Z,0.30
2023-01-23T23:14:21.615Z,0.20
2023-01-23T23:17:18.423Z,0.20
2023-01-23T23:20:15.507Z,0.30
2023-01-23T23:23:12.259Z,0.30
2023-01-23T23:26:10.032Z,0.30
2023-01-23T23:29:06.836Z,0.20
2023-01-23T23:32:03.662Z,0.30
2023-01-23T23:35:00.507Z,0.30
2023-01-23T23:37:57.349Z,0.20
2023-01-23T23:40:59.101Z,0.30
2023-01-23T23:43:55.851Z,0.20
2023-01-23T23:46:52.582Z,0.20
2023-01-23T23:49:49.337Z,0.20
2023-01-23T23:52:46.079Z,0.20
2023-01-23T23:55:42.943Z,0.20
2023-01-23T23:58:39.749Z,0.20
